sensor_id;sensor_type;location;lat;lon;timestamp;P1;durP1;ratioP1;P2;durP2;ratioP2
15198;SDS011;7700;48.654;9.070;2023-07-09T00:00:06;5.85;;;4.38;;
15198;SDS011;7700;48.654;9.070;2023-07-09T00:02:38;5.07;;;3.97;;
15198;SDS011;7700;48.654;9.070;2023-07-09T00:05:05;4.43;;;3.83;;
15198;SDS011;7700;48.654;9.070;2023-07-09T00:07:31;4.25;;;3.70;;
15198;SDS011;7700;48.654;9.070;2023-07-09T00:09:58;4.97;;;4.00;;
15198;SDS011;7700;48.654;9.070;2023-07-09T00:12:24;5.07;;;4.20;;
15198;SDS011;7700;48.654;9.070;2023-07-09T00:14:50;4.30;;;3.90;;
15198;SDS011;7700;48.654;9.070;2023-07-09T00:17:18;5.03;;;3.83;;
15198;SDS011;7700;48.654;9.070;2023-07-09T00:19:44;6.22;;;4.35;;
15198;SDS011;7700;48.654;9.070;2023-07-09T00:22:13;6.68;;;4.07;;
15198;SDS011;7700;48.654;9.070;2023-07-09T00:24:41;4.10;;;3.70;;
15198;SDS011;7700;48.654;9.070;2023-07-09T00:27:12;4.90;;;4.03;;
15198;SDS011;7700;48.654;9.070;2023-07-09T00:29:39;6.57;;;3.80;;
15198;SDS011;7700;48.654;9.070;2023-07-09T00:32:10;3.83;;;3.45;;
15198;SDS011;7700;48.654;9.070;2023-07-09T00:34:36;4.30;;;3.83;;
15198;SDS011;7700;48.654;9.070;2023-07-09T00:37:04;4.47;;;4.07;;
15198;SDS011;7700;48.654;9.070;2023-07-09T00:39:30;3.92;;;3.53;;
15198;SDS011;7700;48.654;9.070;2023-07-09T00:41:56;4.75;;;3.83;;
15198;SDS011;7700;48.654;9.070;2023-07-09T00:44:29;5.55;;;4.20;;
15198;SDS011;7700;48.654;9.070;2023-07-09T00:49:41;4.47;;;3.53;;
15198;SDS011;7700;48.654;9.070;2023-07-09T00:52:19;6.38;;;3.88;;
15198;SDS011;7700;48.654;9.070;2023-07-09T00:54:47;5.20;;;4.03;;
15198;SDS011;7700;48.654;9.070;2023-07-09T00:57:15;4.82;;;4.05;;
15198;SDS011;7700;48.654;9.070;2023-07-09T00:59:47;4.53;;;3.65;;
15198;SDS011;7700;48.654;9.070;2023-07-09T01:02:14;5.22;;;4.20;;
15198;SDS011;7700;48.654;9.070;2023-07-09T01:04:40;4.22;;;3.80;;
15198;SDS011;7700;48.654;9.070;2023-07-09T01:07:07;5.70;;;4.70;;
15198;SDS011;7700;48.654;9.070;2023-07-09T01:09:33;4.35;;;3.65;;
15198;SDS011;7700;48.654;9.070;2023-07-09T01:12:05;3.72;;;3.42;;
15198;SDS011;7700;48.654;9.070;2023-07-09T01:14:33;5.88;;;3.97;;
15198;SDS011;7700;48.654;9.070;2023-07-09T01:17:01;5.32;;;3.60;;
15198;SDS011;7700;48.654;9.070;2023-07-09T01:19:29;6.38;;;3.53;;
15198;SDS011;7700;48.654;9.070;2023-07-09T01:21:56;4.57;;;3.85;;
15198;SDS011;7700;48.654;9.070;2023-07-09T01:27:08;5.70;;;3.60;;
15198;SDS011;7700;48.654;9.070;2023-07-09T01:29:34;4.30;;;3.45;;
15198;SDS011;7700;48.654;9.070;2023-07-09T01:32:01;5.40;;;4.05;;
15198;SDS011;7700;48.654;9.070;2023-07-09T01:34:28;5.00;;;3.33;;
15198;SDS011;7700;48.654;9.070;2023-07-09T01:36:55;4.70;;;3.50;;
15198;SDS011;7700;48.654;9.070;2023-07-09T01:39:21;5.43;;;3.47;;
15198;SDS011;7700;48.654;9.070;2023-07-09T01:41:48;4.25;;;3.80;;
15198;SDS011;7700;48.654;9.070;2023-07-09T01:44:14;4.28;;;3.60;;
15198;SDS011;7700;48.654;9.070;2023-07-09T01:46:40;5.13;;;3.80;;
15198;SDS011;7700;48.654;9.070;2023-07-09T01:49:07;5.63;;;4.07;;
15198;SDS011;7700;48.654;9.070;2023-07-09T01:51:34;4.80;;;3.53;;
15198;SDS011;7700;48.654;9.070;2023-07-09T01:54:01;5.22;;;3.75;;
15198;SDS011;7700;48.654;9.070;2023-07-09T01:56:27;4.95;;;3.72;;
15198;SDS011;7700;48.654;9.070;2023-07-09T01:58:54;4.93;;;3.75;;
15198;SDS011;7700;48.654;9.070;2023-07-09T02:01:26;3.90;;;3.35;;
15198;SDS011;7700;48.654;9.070;2023-07-09T02:03:52;3.85;;;3.38;;
15198;SDS011;7700;48.654;9.070;2023-07-09T02:06:18;5.47;;;3.90;;
15198;SDS011;7700;48.654;9.070;2023-07-09T02:08:44;3.85;;;3.50;;
15198;SDS011;7700;48.654;9.070;2023-07-09T02:11:10;5.18;;;4.50;;
15198;SDS011;7700;48.654;9.070;2023-07-09T02:13:36;5.18;;;4.47;;
15198;SDS011;7700;48.654;9.070;2023-07-09T02:16:02;4.78;;;4.18;;
15198;SDS011;7700;48.654;9.070;2023-07-09T02:18:29;5.28;;;3.97;;
15198;SDS011;7700;48.654;9.070;2023-07-09T02:20:55;5.85;;;4.40;;
15198;SDS011;7700;48.654;9.070;2023-07-09T02:23:24;4.78;;;3.88;;
15198;SDS011;7700;48.654;9.070;2023-07-09T02:25:51;4.85;;;4.00;;
15198;SDS011;7700;48.654;9.070;2023-07-09T02:28:17;4.78;;;4.28;;
15198;SDS011;7700;48.654;9.070;2023-07-09T02:30:43;4.97;;;4.47;;
15198;SDS011;7700;48.654;9.070;2023-07-09T02:33:09;5.65;;;3.92;;
15198;SDS011;7700;48.654;9.070;2023-07-09T02:35:34;4.75;;;4.25;;
15198;SDS011;7700;48.654;9.070;2023-07-09T02:38:01;4.63;;;4.22;;
15198;SDS011;7700;48.654;9.070;2023-07-09T02:40:27;4.88;;;3.72;;
15198;SDS011;7700;48.654;9.070;2023-07-09T02:42:53;4.47;;;4.03;;
15198;SDS011;7700;48.654;9.070;2023-07-09T02:45:19;4.20;;;3.63;;
15198;SDS011;7700;48.654;9.070;2023-07-09T02:47:45;4.25;;;3.85;;
15198;SDS011;7700;48.654;9.070;2023-07-09T02:50:11;5.35;;;3.90;;
15198;SDS011;7700;48.654;9.070;2023-07-09T02:52:37;4.75;;;3.90;;
15198;SDS011;7700;48.654;9.070;2023-07-09T02:55:03;5.70;;;3.67;;
15198;SDS011;7700;48.654;9.070;2023-07-09T02:57:29;6.18;;;3.78;;
15198;SDS011;7700;48.654;9.070;2023-07-09T02:59:55;5.32;;;3.80;;
15198;SDS011;7700;48.654;9.070;2023-07-09T03:02:21;4.78;;;3.95;;
15198;SDS011;7700;48.654;9.070;2023-07-09T03:04:47;6.43;;;4.10;;
15198;SDS011;7700;48.654;9.070;2023-07-09T03:07:13;5.95;;;3.90;;
15198;SDS011;7700;48.654;9.070;2023-07-09T03:09:39;4.25;;;3.83;;
15198;SDS011;7700;48.654;9.070;2023-07-09T03:12:05;5.05;;;3.95;;
15198;SDS011;7700;48.654;9.070;2023-07-09T03:14:32;5.18;;;3.90;;
15198;SDS011;7700;48.654;9.070;2023-07-09T03:16:58;4.20;;;3.72;;
15198;SDS011;7700;48.654;9.070;2023-07-09T03:19:24;4.80;;;4.07;;
15198;SDS011;7700;48.654;9.070;2023-07-09T03:21:50;4.57;;;3.97;;
15198;SDS011;7700;48.654;9.070;2023-07-09T03:24:16;4.72;;;4.20;;
15198;SDS011;7700;48.654;9.070;2023-07-09T03:26:43;4.55;;;3.97;;
15198;SDS011;7700;48.654;9.070;2023-07-09T03:29:09;6.03;;;4.65;;
15198;SDS011;7700;48.654;9.070;2023-07-09T03:31:35;4.25;;;3.75;;
15198;SDS011;7700;48.654;9.070;2023-07-09T03:34:01;4.18;;;3.78;;
15198;SDS011;7700;48.654;9.070;2023-07-09T03:36:27;4.57;;;3.75;;
15198;SDS011;7700;48.654;9.070;2023-07-09T03:38:53;4.90;;;3.90;;
15198;SDS011;7700;48.654;9.070;2023-07-09T03:41:19;4.65;;;3.97;;
15198;SDS011;7700;48.654;9.070;2023-07-09T03:43:45;4.57;;;3.85;;
15198;SDS011;7700;48.654;9.070;2023-07-09T03:46:15;4.15;;;3.75;;
15198;SDS011;7700;48.654;9.070;2023-07-09T03:48:40;6.97;;;4.38;;
15198;SDS011;7700;48.654;9.070;2023-07-09T03:51:06;4.82;;;4.20;;
15198;SDS011;7700;48.654;9.070;2023-07-09T03:53:32;4.85;;;4.43;;
15198;SDS011;7700;48.654;9.070;2023-07-09T03:55:58;5.45;;;4.40;;
15198;SDS011;7700;48.654;9.070;2023-07-09T03:58:25;5.25;;;4.22;;
15198;SDS011;7700;48.654;9.070;2023-07-09T04:00:51;6.93;;;4.35;;
15198;SDS011;7700;48.654;9.070;2023-07-09T04:03:18;5.32;;;4.53;;
15198;SDS011;7700;48.654;9.070;2023-07-09T04:05:44;5.10;;;4.55;;
15198;SDS011;7700;48.654;9.070;2023-07-09T04:08:10;5.40;;;4.32;;
15198;SDS011;7700;48.654;9.070;2023-07-09T04:10:36;5.20;;;3.80;;
15198;SDS011;7700;48.654;9.070;2023-07-09T04:13:02;6.43;;;4.45;;
15198;SDS011;7700;48.654;9.070;2023-07-09T04:15:28;6.95;;;4.45;;
15198;SDS011;7700;48.654;9.070;2023-07-09T04:17:54;5.00;;;4.35;;
15198;SDS011;7700;48.654;9.070;2023-07-09T04:20:20;4.13;;;3.72;;
15198;SDS011;7700;48.654;9.070;2023-07-09T04:22:46;4.40;;;4.00;;
15198;SDS011;7700;48.654;9.070;2023-07-09T04:25:12;4.50;;;4.00;;
15198;SDS011;7700;48.654;9.070;2023-07-09T04:27:39;5.72;;;4.10;;
15198;SDS011;7700;48.654;9.070;2023-07-09T04:30:05;6.78;;;4.45;;
15198;SDS011;7700;48.654;9.070;2023-07-09T04:32:31;4.43;;;3.92;;
15198;SDS011;7700;48.654;9.070;2023-07-09T04:34:57;7.38;;;4.38;;
15198;SDS011;7700;48.654;9.070;2023-07-09T04:37:23;5.07;;;4.30;;
15198;SDS011;7700;48.654;9.070;2023-07-09T04:39:49;5.65;;;4.55;;
15198;SDS011;7700;48.654;9.070;2023-07-09T04:42:16;4.40;;;3.97;;
15198;SDS011;7700;48.654;9.070;2023-07-09T04:44:43;4.72;;;4.32;;
15198;SDS011;7700;48.654;9.070;2023-07-09T04:47:09;4.70;;;4.20;;
15198;SDS011;7700;48.654;9.070;2023-07-09T04:49:37;6.68;;;4.38;;
15198;SDS011;7700;48.654;9.070;2023-07-09T04:52:03;4.43;;;4.03;;
15198;SDS011;7700;48.654;9.070;2023-07-09T04:54:29;5.20;;;4.70;;
15198;SDS011;7700;48.654;9.070;2023-07-09T04:56:55;4.75;;;3.85;;
15198;SDS011;7700;48.654;9.070;2023-07-09T04:59:22;5.82;;;4.57;;
15198;SDS011;7700;48.654;9.070;2023-07-09T05:01:48;6.13;;;4.43;;
15198;SDS011;7700;48.654;9.070;2023-07-09T05:04:14;4.95;;;4.45;;
15198;SDS011;7700;48.654;9.070;2023-07-09T05:06:40;5.97;;;4.47;;
15198;SDS011;7700;48.654;9.070;2023-07-09T05:09:06;6.93;;;5.38;;
15198;SDS011;7700;48.654;9.070;2023-07-09T05:11:33;5.38;;;4.55;;
15198;SDS011;7700;48.654;9.070;2023-07-09T05:13:59;4.72;;;4.25;;
15198;SDS011;7700;48.654;9.070;2023-07-09T05:16:25;7.00;;;4.68;;
15198;SDS011;7700;48.654;9.070;2023-07-09T05:18:51;6.53;;;4.88;;
15198;SDS011;7700;48.654;9.070;2023-07-09T05:21:17;4.95;;;4.45;;
15198;SDS011;7700;48.654;9.070;2023-07-09T05:23:43;5.10;;;4.60;;
15198;SDS011;7700;48.654;9.070;2023-07-09T05:26:09;5.43;;;4.35;;
15198;SDS011;7700;48.654;9.070;2023-07-09T05:28:35;4.60;;;4.03;;
15198;SDS011;7700;48.654;9.070;2023-07-09T05:31:01;4.82;;;4.32;;
15198;SDS011;7700;48.654;9.070;2023-07-09T05:33:27;5.53;;;4.82;;
15198;SDS011;7700;48.654;9.070;2023-07-09T05:35:53;4.50;;;4.10;;
15198;SDS011;7700;48.654;9.070;2023-07-09T05:38:19;6.63;;;4.75;;
15198;SDS011;7700;48.654;9.070;2023-07-09T05:40:45;6.18;;;4.97;;
15198;SDS011;7700;48.654;9.070;2023-07-09T05:43:11;4.32;;;3.92;;
15198;SDS011;7700;48.654;9.070;2023-07-09T05:45:40;8.70;;;5.15;;
15198;SDS011;7700;48.654;9.070;2023-07-09T05:48:06;4.75;;;4.20;;
15198;SDS011;7700;48.654;9.070;2023-07-09T05:50:33;4.72;;;4.22;;
15198;SDS011;7700;48.654;9.070;2023-07-09T05:52:59;5.22;;;4.70;;
15198;SDS011;7700;48.654;9.070;2023-07-09T05:55:25;5.75;;;4.57;;
15198;SDS011;7700;48.654;9.070;2023-07-09T05:57:52;5.35;;;4.85;;
15198;SDS011;7700;48.654;9.070;2023-07-09T06:00:17;6.28;;;4.45;;
15198;SDS011;7700;48.654;9.070;2023-07-09T06:02:43;5.50;;;4.65;;
15198;SDS011;7700;48.654;9.070;2023-07-09T06:05:09;4.68;;;4.22;;
15198;SDS011;7700;48.654;9.070;2023-07-09T06:07:36;6.65;;;4.70;;
15198;SDS011;7700;48.654;9.070;2023-07-09T06:10:02;5.65;;;4.50;;
15198;SDS011;7700;48.654;9.070;2023-07-09T06:12:28;4.57;;;4.13;;
15198;SDS011;7700;48.654;9.070;2023-07-09T06:14:54;8.90;;;4.85;;
15198;SDS011;7700;48.654;9.070;2023-07-09T06:17:20;5.68;;;4.60;;
15198;SDS011;7700;48.654;9.070;2023-07-09T06:19:46;5.78;;;4.45;;
15198;SDS011;7700;48.654;9.070;2023-07-09T06:22:12;5.68;;;4.82;;
15198;SDS011;7700;48.654;9.070;2023-07-09T06:24:38;4.75;;;3.90;;
15198;SDS011;7700;48.654;9.070;2023-07-09T06:27:04;6.15;;;4.68;;
15198;SDS011;7700;48.654;9.070;2023-07-09T06:29:30;6.40;;;4.53;;
15198;SDS011;7700;48.654;9.070;2023-07-09T06:31:56;7.30;;;4.55;;
15198;SDS011;7700;48.654;9.070;2023-07-09T06:34:22;4.65;;;4.13;;
15198;SDS011;7700;48.654;9.070;2023-07-09T06:36:48;4.72;;;4.30;;
15198;SDS011;7700;48.654;9.070;2023-07-09T06:39:14;6.35;;;4.75;;
15198;SDS011;7700;48.654;9.070;2023-07-09T06:41:39;5.60;;;4.25;;
15198;SDS011;7700;48.654;9.070;2023-07-09T06:44:06;4.93;;;4.50;;
15198;SDS011;7700;48.654;9.070;2023-07-09T06:46:32;5.88;;;4.50;;
15198;SDS011;7700;48.654;9.070;2023-07-09T06:48:58;4.97;;;4.35;;
15198;SDS011;7700;48.654;9.070;2023-07-09T06:51:25;4.47;;;4.03;;
15198;SDS011;7700;48.654;9.070;2023-07-09T06:53:50;5.28;;;4.18;;
15198;SDS011;7700;48.654;9.070;2023-07-09T06:56:17;5.30;;;4.13;;
15198;SDS011;7700;48.654;9.070;2023-07-09T06:58:43;4.43;;;4.03;;
15198;SDS011;7700;48.654;9.070;2023-07-09T07:01:11;5.60;;;4.68;;
15198;SDS011;7700;48.654;9.070;2023-07-09T07:03:37;5.97;;;4.20;;
15198;SDS011;7700;48.654;9.070;2023-07-09T07:06:03;6.72;;;4.20;;
15198;SDS011;7700;48.654;9.070;2023-07-09T07:08:31;5.57;;;4.38;;
15198;SDS011;7700;48.654;9.070;2023-07-09T07:10:58;6.18;;;4.13;;
15198;SDS011;7700;48.654;9.070;2023-07-09T07:13:38;5.03;;;4.10;;
15198;SDS011;7700;48.654;9.070;2023-07-09T07:16:04;4.10;;;3.70;;
15198;SDS011;7700;48.654;9.070;2023-07-09T07:18:31;5.43;;;3.72;;
15198;SDS011;7700;48.654;9.070;2023-07-09T07:20:57;7.22;;;4.35;;
15198;SDS011;7700;48.654;9.070;2023-07-09T07:23:23;5.53;;;4.32;;
15198;SDS011;7700;48.654;9.070;2023-07-09T07:25:49;6.32;;;4.00;;
15198;SDS011;7700;48.654;9.070;2023-07-09T07:28:15;5.05;;;3.90;;
15198;SDS011;7700;48.654;9.070;2023-07-09T07:30:42;4.18;;;3.35;;
15198;SDS011;7700;48.654;9.070;2023-07-09T07:33:08;4.25;;;3.85;;
15198;SDS011;7700;48.654;9.070;2023-07-09T07:35:34;4.30;;;3.90;;
15198;SDS011;7700;48.654;9.070;2023-07-09T07:38:01;4.32;;;3.67;;
15198;SDS011;7700;48.654;9.070;2023-07-09T07:40:27;4.63;;;3.97;;
15198;SDS011;7700;48.654;9.070;2023-07-09T07:42:53;3.70;;;3.40;;
15198;SDS011;7700;48.654;9.070;2023-07-09T07:45:19;5.05;;;3.67;;
15198;SDS011;7700;48.654;9.070;2023-07-09T07:47:45;5.25;;;4.00;;
15198;SDS011;7700;48.654;9.070;2023-07-09T07:50:11;6.65;;;3.78;;
15198;SDS011;7700;48.654;9.070;2023-07-09T07:52:36;4.60;;;3.53;;
15198;SDS011;7700;48.654;9.070;2023-07-09T07:55:06;4.82;;;3.80;;
15198;SDS011;7700;48.654;9.070;2023-07-09T07:57:33;4.80;;;4.40;;
15198;SDS011;7700;48.654;9.070;2023-07-09T07:59:59;8.40;;;7.75;;
15198;SDS011;7700;48.654;9.070;2023-07-09T08:02:25;9.05;;;8.18;;
15198;SDS011;7700;48.654;9.070;2023-07-09T08:04:51;9.43;;;8.77;;
15198;SDS011;7700;48.654;9.070;2023-07-09T08:07:17;15.48;;;14.38;;
15198;SDS011;7700;48.654;9.070;2023-07-09T08:09:44;22.45;;;21.10;;
15198;SDS011;7700;48.654;9.070;2023-07-09T08:12:11;23.73;;;21.95;;
15198;SDS011;7700;48.654;9.070;2023-07-09T08:14:38;47.22;;;43.45;;
15198;SDS011;7700;48.654;9.070;2023-07-09T08:17:10;48.33;;;45.03;;
15198;SDS011;7700;48.654;9.070;2023-07-09T08:19:46;54.15;;;50.03;;
15198;SDS011;7700;48.654;9.070;2023-07-09T08:22:13;58.35;;;53.78;;
15198;SDS011;7700;48.654;9.070;2023-07-09T08:24:40;52.80;;;49.13;;
15198;SDS011;7700;48.654;9.070;2023-07-09T08:27:06;60.22;;;54.97;;
15198;SDS011;7700;48.654;9.070;2023-07-09T08:29:33;54.28;;;50.30;;
15198;SDS011;7700;48.654;9.070;2023-07-09T08:32:02;71.65;;;65.40;;
15198;SDS011;7700;48.654;9.070;2023-07-09T08:34:29;60.10;;;54.45;;
15198;SDS011;7700;48.654;9.070;2023-07-09T08:36:55;74.45;;;67.53;;
15198;SDS011;7700;48.654;9.070;2023-07-09T08:39:21;69.07;;;62.55;;
15198;SDS011;7700;48.654;9.070;2023-07-09T08:41:48;72.15;;;65.60;;
15198;SDS011;7700;48.654;9.070;2023-07-09T08:44:31;62.13;;;56.25;;
15198;SDS011;7700;48.654;9.070;2023-07-09T08:47:12;79.65;;;72.22;;
15198;SDS011;7700;48.654;9.070;2023-07-09T08:49:56;70.38;;;63.65;;
15198;SDS011;7700;48.654;9.070;2023-07-09T08:52:40;81.60;;;72.68;;
15198;SDS011;7700;48.654;9.070;2023-07-09T08:55:08;98.95;;;88.03;;
15198;SDS011;7700;48.654;9.070;2023-07-09T08:57:36;74.90;;;68.32;;
15198;SDS011;7700;48.654;9.070;2023-07-09T09:02:56;52.00;;;47.58;;
15198;SDS011;7700;48.654;9.070;2023-07-09T09:05:23;92.80;;;76.55;;
15198;SDS011;7700;48.654;9.070;2023-07-09T09:07:51;93.38;;;84.45;;
15198;SDS011;7700;48.654;9.070;2023-07-09T09:10:22;64.03;;;57.50;;
15198;SDS011;7700;48.654;9.070;2023-07-09T09:15:21;115.93;;;97.88;;
15198;SDS011;7700;48.654;9.070;2023-07-09T09:17:48;71.70;;;63.88;;
15198;SDS011;7700;48.654;9.070;2023-07-09T09:20:17;73.90;;;64.97;;
15198;SDS011;7700;48.654;9.070;2023-07-09T09:25:32;79.80;;;71.70;;
15198;SDS011;7700;48.654;9.070;2023-07-09T09:27:59;63.15;;;57.05;;
15198;SDS011;7700;48.654;9.070;2023-07-09T09:30:25;67.30;;;60.08;;
15198;SDS011;7700;48.654;9.070;2023-07-09T09:32:58;73.35;;;67.68;;
15198;SDS011;7700;48.654;9.070;2023-07-09T09:35:31;74.00;;;66.30;;
15198;SDS011;7700;48.654;9.070;2023-07-09T09:37:58;71.63;;;63.75;;
15198;SDS011;7700;48.654;9.070;2023-07-09T09:40:25;55.60;;;50.15;;
15198;SDS011;7700;48.654;9.070;2023-07-09T09:42:52;103.03;;;93.18;;
15198;SDS011;7700;48.654;9.070;2023-07-09T09:45:19;106.13;;;76.18;;
15198;SDS011;7700;48.654;9.070;2023-07-09T09:47:46;87.38;;;78.22;;
15198;SDS011;7700;48.654;9.070;2023-07-09T09:50:16;58.13;;;52.15;;
15198;SDS011;7700;48.654;9.070;2023-07-09T09:52:43;66.43;;;48.00;;
15198;SDS011;7700;48.654;9.070;2023-07-09T09:55:10;60.33;;;52.80;;
15198;SDS011;7700;48.654;9.070;2023-07-09T09:57:37;83.50;;;63.58;;
15198;SDS011;7700;48.654;9.070;2023-07-09T10:03:34;133.57;;;102.60;;
15198;SDS011;7700;48.654;9.070;2023-07-09T10:06:03;98.78;;;86.20;;
15198;SDS011;7700;48.654;9.070;2023-07-09T10:10:59;126.68;;;103.55;;
15198;SDS011;7700;48.654;9.070;2023-07-09T10:13:30;82.85;;;73.68;;
15198;SDS011;7700;48.654;9.070;2023-07-09T10:26:36;87.38;;;78.45;;
15198;SDS011;7700;48.654;9.070;2023-07-09T10:32:23;282.73;;;185.35;;
15198;SDS011;7700;48.654;9.070;2023-07-09T10:35:10;93.18;;;83.88;;
15198;SDS011;7700;48.654;9.070;2023-07-09T10:40:13;139.27;;;100.60;;
15198;SDS011;7700;48.654;9.070;2023-07-09T10:42:44;253.85;;;166.48;;
15198;SDS011;7700;48.654;9.070;2023-07-09T10:45:15;208.93;;;158.63;;
15198;SDS011;7700;48.654;9.070;2023-07-09T10:47:49;170.57;;;127.05;;
15198;SDS011;7700;48.654;9.070;2023-07-09T10:50:29;196.38;;;135.52;;
15198;SDS011;7700;48.654;9.070;2023-07-09T10:52:58;294.73;;;208.07;;
15198;SDS011;7700;48.654;9.070;2023-07-09T10:55:30;268.83;;;178.15;;
15198;SDS011;7700;48.654;9.070;2023-07-09T10:58:00;107.95;;;95.22;;
15198;SDS011;7700;48.654;9.070;2023-07-09T11:00:33;262.77;;;167.43;;
15198;SDS011;7700;48.654;9.070;2023-07-09T11:03:02;128.75;;;85.13;;
15198;SDS011;7700;48.654;9.070;2023-07-09T11:05:29;116.85;;;93.90;;
15198;SDS011;7700;48.654;9.070;2023-07-09T11:10:31;108.10;;;97.82;;
15198;SDS011;7700;48.654;9.070;2023-07-09T11:12:59;92.32;;;68.28;;
15198;SDS011;7700;48.654;9.070;2023-07-09T11:15:35;94.93;;;84.57;;
15198;SDS011;7700;48.654;9.070;2023-07-09T11:18:04;84.05;;;75.35;;
15198;SDS011;7700;48.654;9.070;2023-07-09T11:20:34;74.45;;;61.55;;
15198;SDS011;7700;48.654;9.070;2023-07-09T11:23:16;82.50;;;73.47;;
15198;SDS011;7700;48.654;9.070;2023-07-09T11:25:47;150.85;;;121.70;;
15198;SDS011;7700;48.654;9.070;2023-07-09T11:28:13;98.85;;;88.28;;
15198;SDS011;7700;48.654;9.070;2023-07-09T11:30:46;85.00;;;76.68;;
15198;SDS011;7700;48.654;9.070;2023-07-09T11:33:20;130.43;;;109.22;;
15198;SDS011;7700;48.654;9.070;2023-07-09T11:35:52;77.15;;;69.68;;
15198;SDS011;7700;48.654;9.070;2023-07-09T11:38:20;363.48;;;234.32;;
15198;SDS011;7700;48.654;9.070;2023-07-09T11:40:51;81.57;;;74.10;;
15198;SDS011;7700;48.654;9.070;2023-07-09T11:43:27;108.05;;;96.35;;
15198;SDS011;7700;48.654;9.070;2023-07-09T11:45:54;99.25;;;73.35;;
15198;SDS011;7700;48.654;9.070;2023-07-09T11:48:23;83.63;;;69.53;;
15198;SDS011;7700;48.654;9.070;2023-07-09T11:50:51;91.93;;;83.82;;
15198;SDS011;7700;48.654;9.070;2023-07-09T11:56:02;117.05;;;103.78;;
15198;SDS011;7700;48.654;9.070;2023-07-09T11:58:28;177.98;;;160.80;;
15198;SDS011;7700;48.654;9.070;2023-07-09T12:00:55;146.48;;;132.65;;
15198;SDS011;7700;48.654;9.070;2023-07-09T12:03:34;152.70;;;135.85;;
15198;SDS011;7700;48.654;9.070;2023-07-09T12:08:46;653.53;;;413.52;;
15198;SDS011;7700;48.654;9.070;2023-07-09T12:11:19;177.13;;;161.00;;
15198;SDS011;7700;48.654;9.070;2023-07-09T12:13:45;160.07;;;144.70;;
15198;SDS011;7700;48.654;9.070;2023-07-09T12:16:22;170.45;;;153.60;;
15198;SDS011;7700;48.654;9.070;2023-07-09T12:18:49;376.77;;;293.25;;
15198;SDS011;7700;48.654;9.070;2023-07-09T12:21:15;424.00;;;319.35;;
15198;SDS011;7700;48.654;9.070;2023-07-09T12:23:41;218.20;;;196.75;;
15198;SDS011;7700;48.654;9.070;2023-07-09T12:26:10;224.60;;;202.90;;
15198;SDS011;7700;48.654;9.070;2023-07-09T12:28:37;210.60;;;187.32;;
15198;SDS011;7700;48.654;9.070;2023-07-09T12:31:03;151.02;;;134.88;;
15198;SDS011;7700;48.654;9.070;2023-07-09T12:33:29;226.73;;;205.40;;
15198;SDS011;7700;48.654;9.070;2023-07-09T12:35:59;257.42;;;235.35;;
15198;SDS011;7700;48.654;9.070;2023-07-09T12:38:26;244.63;;;220.65;;
15198;SDS011;7700;48.654;9.070;2023-07-09T12:40:52;228.10;;;203.52;;
15198;SDS011;7700;48.654;9.070;2023-07-09T12:43:26;280.10;;;250.38;;
15198;SDS011;7700;48.654;9.070;2023-07-09T12:45:52;427.98;;;381.67;;
15198;SDS011;7700;48.654;9.070;2023-07-09T12:48:21;518.58;;;461.60;;
15198;SDS011;7700;48.654;9.070;2023-07-09T12:50:48;292.95;;;263.10;;
15198;SDS011;7700;48.654;9.070;2023-07-09T12:53:18;449.58;;;408.98;;
15198;SDS011;7700;48.654;9.070;2023-07-09T12:55:48;448.80;;;402.73;;
15198;SDS011;7700;48.654;9.070;2023-07-09T12:58:20;558.08;;;499.75;;
15198;SDS011;7700;48.654;9.070;2023-07-09T13:00:50;398.88;;;362.77;;
15198;SDS011;7700;48.654;9.070;2023-07-09T13:03:18;350.45;;;315.42;;
15198;SDS011;7700;48.654;9.070;2023-07-09T13:08:42;318.40;;;291.67;;
15198;SDS011;7700;48.654;9.070;2023-07-09T13:11:15;458.92;;;408.60;;
15198;SDS011;7700;48.654;9.070;2023-07-09T13:13:52;833.03;;;635.08;;
15198;SDS011;7700;48.654;9.070;2023-07-09T13:16:19;461.10;;;415.17;;
15198;SDS011;7700;48.654;9.070;2023-07-09T13:18:45;330.30;;;293.42;;
15198;SDS011;7700;48.654;9.070;2023-07-09T13:21:13;305.58;;;277.83;;
15198;SDS011;7700;48.654;9.070;2023-07-09T13:23:40;378.52;;;341.83;;
15198;SDS011;7700;48.654;9.070;2023-07-09T13:26:07;365.50;;;307.63;;
15198;SDS011;7700;48.654;9.070;2023-07-09T13:28:33;394.67;;;357.98;;
15198;SDS011;7700;48.654;9.070;2023-07-09T13:31:01;402.13;;;361.98;;
15198;SDS011;7700;48.654;9.070;2023-07-09T13:33:30;471.30;;;429.13;;
15198;SDS011;7700;48.654;9.070;2023-07-09T13:35:56;633.15;;;572.28;;
15198;SDS011;7700;48.654;9.070;2023-07-09T13:38:23;459.80;;;417.13;;
15198;SDS011;7700;48.654;9.070;2023-07-09T13:40:51;454.98;;;410.65;;
15198;SDS011;7700;48.654;9.070;2023-07-09T13:43:20;513.38;;;457.02;;
15198;SDS011;7700;48.654;9.070;2023-07-09T13:45:47;817.65;;;550.83;;
15198;SDS011;7700;48.654;9.070;2023-07-09T13:48:16;326.90;;;292.15;;
15198;SDS011;7700;48.654;9.070;2023-07-09T13:50:42;289.48;;;260.42;;
15198;SDS011;7700;48.654;9.070;2023-07-09T13:53:16;157.73;;;143.05;;
15198;SDS011;7700;48.654;9.070;2023-07-09T13:55:42;158.80;;;144.40;;
15198;SDS011;7700;48.654;9.070;2023-07-09T13:58:12;173.25;;;159.20;;
15198;SDS011;7700;48.654;9.070;2023-07-09T14:00:39;221.77;;;203.35;;
15198;SDS011;7700;48.654;9.070;2023-07-09T14:03:21;239.50;;;215.05;;
15198;SDS011;7700;48.654;9.070;2023-07-09T14:05:48;308.65;;;282.83;;
15198;SDS011;7700;48.654;9.070;2023-07-09T14:08:15;392.65;;;352.33;;
15198;SDS011;7700;48.654;9.070;2023-07-09T14:10:41;454.13;;;412.23;;
15198;SDS011;7700;48.654;9.070;2023-07-09T14:13:09;487.27;;;437.02;;
15198;SDS011;7700;48.654;9.070;2023-07-09T14:15:38;543.50;;;488.50;;
15198;SDS011;7700;48.654;9.070;2023-07-09T14:18:05;593.47;;;528.53;;
15198;SDS011;7700;48.654;9.070;2023-07-09T14:20:31;492.88;;;440.00;;
15198;SDS011;7700;48.654;9.070;2023-07-09T14:22:57;428.38;;;391.52;;
15198;SDS011;7700;48.654;9.070;2023-07-09T14:25:24;381.50;;;346.25;;
15198;SDS011;7700;48.654;9.070;2023-07-09T14:27:51;393.42;;;357.50;;
15198;SDS011;7700;48.654;9.070;2023-07-09T14:30:18;305.00;;;281.05;;
15198;SDS011;7700;48.654;9.070;2023-07-09T14:32:44;922.15;;;581.30;;
15198;SDS011;7700;48.654;9.070;2023-07-09T14:35:12;224.20;;;207.30;;
15198;SDS011;7700;48.654;9.070;2023-07-09T14:37:39;220.07;;;204.35;;
15198;SDS011;7700;48.654;9.070;2023-07-09T14:40:05;382.67;;;346.92;;
15198;SDS011;7700;48.654;9.070;2023-07-09T14:42:31;369.58;;;333.58;;
15198;SDS011;7700;48.654;9.070;2023-07-09T14:44:57;336.98;;;308.30;;
15198;SDS011;7700;48.654;9.070;2023-07-09T14:47:23;278.33;;;253.63;;
15198;SDS011;7700;48.654;9.070;2023-07-09T14:49:50;340.60;;;310.40;;
15198;SDS011;7700;48.654;9.070;2023-07-09T14:52:18;690.72;;;512.20;;
15198;SDS011;7700;48.654;9.070;2023-07-09T14:54:45;253.07;;;231.20;;
15198;SDS011;7700;48.654;9.070;2023-07-09T14:57:23;241.18;;;220.27;;
15198;SDS011;7700;48.654;9.070;2023-07-09T14:59:51;266.05;;;236.45;;
15198;SDS011;7700;48.654;9.070;2023-07-09T15:02:21;287.00;;;260.98;;
15198;SDS011;7700;48.654;9.070;2023-07-09T15:04:48;280.75;;;252.40;;
15198;SDS011;7700;48.654;9.070;2023-07-09T15:07:14;458.73;;;416.27;;
15198;SDS011;7700;48.654;9.070;2023-07-09T15:09:40;806.65;;;565.75;;
15198;SDS011;7700;48.654;9.070;2023-07-09T15:12:12;407.10;;;369.40;;
15198;SDS011;7700;48.654;9.070;2023-07-09T15:14:41;269.73;;;245.43;;
15198;SDS011;7700;48.654;9.070;2023-07-09T15:17:08;288.15;;;259.33;;
15198;SDS011;7700;48.654;9.070;2023-07-09T15:19:35;272.80;;;247.70;;
15198;SDS011;7700;48.654;9.070;2023-07-09T15:22:01;252.60;;;229.25;;
15198;SDS011;7700;48.654;9.070;2023-07-09T15:24:28;283.23;;;256.50;;
15198;SDS011;7700;48.654;9.070;2023-07-09T15:26:55;306.33;;;278.65;;
15198;SDS011;7700;48.654;9.070;2023-07-09T15:29:22;237.82;;;218.40;;